Lansingburg, New York
Current Conditions -  °F | °C
As of 7:51 AM on Friday 28 Nov 2014 (Local Time) from KALB Reporting Station
Few Clouds Few Clouds  
Wind Chill: 16°   Ceiling: Unl
Heat Index: 26°   Visibility: 10mi
Dew Point: 18°   Wind: 12mph
Humidity: 71%   Direction: 280°W
Pressure: 30.12"   Gusts: NA
Location:  42.8029°N, 73.6379°W
Report Text: KALB 281251Z 28010KT 10SM FEW028 FEW045 FEW110 M03/M08 A3012 RMK AO2 SLP204 T10331078
Loading
Personal Weather Stations






























Interactive Weather Map New forecast layout! Learn more

10-Day Weather Forecast

Advertisements
Track Severe Weather on mobile